createdAt,value
2023-03-02T00:00:35.428Z,24.04
2023-03-02T00:01:35.393Z,24.06
2023-03-02T00:02:35.391Z,24.10
2023-03-02T00:03:35.403Z,24.06
2023-03-02T00:04:35.349Z,24.08
2023-03-02T00:05:35.333Z,24.01
2023-03-02T00:06:35.326Z,24.01
2023-03-02T00:07:35.310Z,24.04
2023-03-02T00:08:35.271Z,24.04
2023-03-02T00:09:35.260Z,23.98
2023-03-02T00:10:35.240Z,24.05
2023-03-02T00:11:35.224Z,24.00
2023-03-02T00:12:35.206Z,24.06
2023-03-02T00:13:35.171Z,24.06
2023-03-02T00:14:35.167Z,24.08
2023-03-02T00:15:35.181Z,24.03
2023-03-02T00:16:35.380Z,24.10
2023-03-02T00:17:35.106Z,24.10
2023-03-02T00:18:35.085Z,24.07
2023-03-02T00:19:35.079Z,24.11
2023-03-02T00:20:35.047Z,24.13
2023-03-02T00:21:35.019Z,24.06
2023-03-02T00:22:34.993Z,24.08
2023-03-02T00:23:34.982Z,23.98
2023-03-02T00:24:34.956Z,24.08
2023-03-02T00:25:35.035Z,24.06
2023-03-02T00:26:34.905Z,24.02
2023-03-02T00:27:34.891Z,24.00
2023-03-02T00:28:34.866Z,24.06
2023-03-02T00:29:34.838Z,24.02
2023-03-02T00:30:34.823Z,24.04
2023-03-02T00:31:34.979Z,23.97
2023-03-02T00:32:34.859Z,23.98
2023-03-02T00:33:34.761Z,24.06
2023-03-02T00:34:34.744Z,24.04
2023-03-02T00:35:34.722Z,23.97
2023-03-02T00:36:34.692Z,24.01
2023-03-02T00:37:34.664Z,24.04
2023-03-02T00:38:34.662Z,23.97
2023-03-02T00:39:34.628Z,24.01
2023-03-02T00:40:34.597Z,23.96
2023-03-02T00:41:34.578Z,24.04
2023-03-02T00:42:34.540Z,24.00
2023-03-02T00:43:34.531Z,23.98
2023-03-02T00:44:34.500Z,23.97
2023-03-02T00:45:34.483Z,24.00
2023-03-02T00:46:34.847Z,23.97
2023-03-02T00:47:34.437Z,24.01
2023-03-02T00:48:34.401Z,23.97
2023-03-02T00:49:34.379Z,24.01
2023-03-02T00:50:34.371Z,24.08
2023-03-02T00:51:34.340Z,24.01
2023-03-02T00:52:34.309Z,24.01
2023-03-02T00:53:34.287Z,23.98
2023-03-02T00:54:34.274Z,23.97
2023-03-02T00:55:34.242Z,24.01
2023-03-02T00:56:34.601Z,24.03
2023-03-02T00:57:34.187Z,24.02
2023-03-02T00:58:34.196Z,23.96
2023-03-02T00:59:34.145Z,24.05
2023-03-02T01:00:34.129Z,24.03
2023-03-02T01:01:34.108Z,24.04
2023-03-02T01:02:34.238Z,23.93
2023-03-02T01:03:34.100Z,24.00
2023-03-02T01:04:34.028Z,23.97
2023-03-02T01:05:34.022Z,23.97
2023-03-02T01:06:34.384Z,23.97
2023-03-02T01:07:33.981Z,24.01
2023-03-02T01:08:33.960Z,23.97
2023-03-02T01:09:33.927Z,23.92
2023-03-02T01:10:33.922Z,23.98
2023-03-02T01:11:33.881Z,23.95
2023-03-02T01:12:33.866Z,24.03
2023-03-02T01:13:33.834Z,23.93
2023-03-02T01:14:33.813Z,23.94
2023-03-02T01:15:33.803Z,23.92
2023-03-02T01:16:34.335Z,23.99
2023-03-02T01:17:33.765Z,24.06
2023-03-02T01:18:33.740Z,23.98
2023-03-02T01:19:33.710Z,23.94
2023-03-02T01:20:33.689Z,23.95
2023-03-02T01:21:33.678Z,23.94
2023-03-02T01:22:33.647Z,23.94
2023-03-02T01:23:33.640Z,23.96
2023-03-02T01:24:33.616Z,23.96
2023-03-02T01:25:33.590Z,23.89
2023-03-02T01:26:33.855Z,23.82
2023-03-02T01:27:33.551Z,23.89
2023-03-02T01:28:33.531Z,23.93
2023-03-02T01:29:33.568Z,23.97
2023-03-02T01:30:33.507Z,23.95
2023-03-02T01:31:33.539Z,24.05
2023-03-02T01:32:33.506Z,23.98
2023-03-02T01:33:33.446Z,23.95
2023-03-02T01:34:33.416Z,23.99
2023-03-02T01:35:33.444Z,23.93
2023-03-02T01:36:33.744Z,23.98
2023-03-02T01:37:33.364Z,23.99
2023-03-02T01:38:33.364Z,23.94
2023-03-02T01:39:33.321Z,23.93
2023-03-02T01:40:33.299Z,23.95
2023-03-02T01:41:33.273Z,24.00
2023-03-02T01:42:33.254Z,23.98
2023-03-02T01:43:33.229Z,23.94
2023-03-02T01:44:33.201Z,23.91
2023-03-02T01:45:33.345Z,23.94
2023-03-02T01:46:33.613Z,23.87
2023-03-02T01:47:33.137Z,23.93
2023-03-02T01:48:33.105Z,23.91
2023-03-02T01:49:33.072Z,23.78
2023-03-02T01:50:33.052Z,23.91
2023-03-02T01:51:33.029Z,23.94
2023-03-02T01:52:33.001Z,23.97
2023-03-02T01:53:32.981Z,23.87
2023-03-02T01:54:32.950Z,23.95
2023-03-02T01:55:32.925Z,23.94
2023-03-02T01:56:33.344Z,23.90
2023-03-02T01:57:32.892Z,23.99
2023-03-02T01:58:32.858Z,23.98
2023-03-02T01:59:32.843Z,23.97
2023-03-02T02:00:32.825Z,23.88
2023-03-02T02:01:32.862Z,23.98
2023-03-02T02:02:32.809Z,23.96
2023-03-02T02:03:32.756Z,23.95
2023-03-02T02:04:32.729Z,23.94
2023-03-02T02:05:32.711Z,23.91
2023-03-02T02:06:33.306Z,23.92
2023-03-02T02:07:32.685Z,23.94
2023-03-02T02:08:32.661Z,23.94
2023-03-02T02:09:32.636Z,23.84
2023-03-02T02:10:32.634Z,23.85
2023-03-02T02:11:32.607Z,23.87
2023-03-02T02:12:32.600Z,23.89
2023-03-02T02:13:32.564Z,23.88
2023-03-02T02:14:32.547Z,23.89
2023-03-02T02:15:32.521Z,23.88
2023-03-02T02:16:32.902Z,23.90
2023-03-02T02:17:32.492Z,23.89
2023-03-02T02:18:32.460Z,23.76
2023-03-02T02:19:32.441Z,23.94
2023-03-02T02:20:32.417Z,23.81
2023-03-02T02:21:32.412Z,23.82
2023-03-02T02:22:32.379Z,23.81
2023-03-02T02:23:32.352Z,23.76
2023-03-02T02:24:32.339Z,23.87
2023-03-02T02:25:32.297Z,23.90
2023-03-02T02:26:32.488Z,23.92
2023-03-02T02:27:32.249Z,23.90
2023-03-02T02:28:32.226Z,23.83
2023-03-02T02:29:32.219Z,23.92
2023-03-02T02:30:32.187Z,23.86
2023-03-02T02:31:32.215Z,23.88
2023-03-02T02:32:32.181Z,23.81
2023-03-02T02:33:32.106Z,23.83
2023-03-02T02:34:32.095Z,23.83
2023-03-02T02:35:32.153Z,23.87
2023-03-02T02:36:32.374Z,23.86
2023-03-02T02:37:32.024Z,23.87
2023-03-02T02:38:31.991Z,23.84
2023-03-02T02:39:31.977Z,23.87
2023-03-02T02:40:31.944Z,23.82
2023-03-02T02:41:31.933Z,23.79
2023-03-02T02:42:31.916Z,23.90
2023-03-02T02:43:31.881Z,23.88
2023-03-02T02:44:31.844Z,23.88
2023-03-02T02:45:31.836Z,23.88
2023-03-02T02:46:32.091Z,23.88
2023-03-02T02:47:31.808Z,23.91
2023-03-02T02:48:31.762Z,23.92
2023-03-02T02:49:31.722Z,23.88
2023-03-02T02:50:31.700Z,23.88
2023-03-02T02:51:31.673Z,23.90
2023-03-02T02:52:31.655Z,23.86
2023-03-02T02:53:31.628Z,23.80
2023-03-02T02:54:31.602Z,23.85
2023-03-02T02:55:31.574Z,23.88
2023-03-02T02:56:31.932Z,23.87
2023-03-02T02:57:31.527Z,23.86
2023-03-02T02:58:31.514Z,23.87
2023-03-02T02:59:31.477Z,23.86
2023-03-02T03:00:31.473Z,23.87
2023-03-02T03:01:31.488Z,23.80
2023-03-02T03:02:31.402Z,23.85
2023-03-02T03:03:31.401Z,23.78
2023-03-02T03:04:31.433Z,23.78
2023-03-02T03:05:31.400Z,23.87
2023-03-02T03:06:31.578Z,23.82
2023-03-02T03:07:31.310Z,23.79
2023-03-02T03:08:31.304Z,23.86
2023-03-02T03:09:31.336Z,23.79
2023-03-02T03:10:31.261Z,23.80
2023-03-02T03:11:31.242Z,23.82
2023-03-02T03:12:31.227Z,23.82
2023-03-02T03:13:31.211Z,23.82
2023-03-02T03:14:31.194Z,23.79
2023-03-02T03:15:31.184Z,23.81
2023-03-02T03:16:31.861Z,23.71
2023-03-02T03:17:31.149Z,23.82
2023-03-02T03:18:31.127Z,23.91
2023-03-02T03:19:31.130Z,23.79
2023-03-02T03:20:31.083Z,23.80
2023-03-02T03:21:31.075Z,23.84
2023-03-02T03:22:31.038Z,23.82
2023-03-02T03:23:31.024Z,23.83
2023-03-02T03:24:31.001Z,23.79
2023-03-02T03:25:30.988Z,23.84
2023-03-02T03:26:31.381Z,23.80
2023-03-02T03:27:30.950Z,23.87
2023-03-02T03:28:30.928Z,23.84
2023-03-02T03:29:30.911Z,23.80
2023-03-02T03:30:30.910Z,23.96
2023-03-02T03:31:30.878Z,23.87
2023-03-02T03:32:30.945Z,23.80
2023-03-02T03:33:30.851Z,23.88
2023-03-02T03:34:30.820Z,23.81
2023-03-02T03:35:30.828Z,23.86
2023-03-02T03:36:31.170Z,23.80
2023-03-02T03:37:30.770Z,23.81
2023-03-02T03:38:30.747Z,23.87
2023-03-02T03:39:30.732Z,23.87
2023-03-02T03:40:30.704Z,23.84
2023-03-02T03:41:30.697Z,23.83
2023-03-02T03:42:30.667Z,23.80
2023-03-02T03:43:30.645Z,23.79
2023-03-02T03:44:30.651Z,23.79
2023-03-02T03:45:30.619Z,23.81
2023-03-02T03:46:30.939Z,23.72
2023-03-02T03:47:30.569Z,23.60
2023-03-02T03:48:30.543Z,23.72
2023-03-02T03:49:30.528Z,23.75
2023-03-02T03:50:30.506Z,23.73
2023-03-02T03:51:30.496Z,23.68
2023-03-02T03:52:30.631Z,23.64
2023-03-02T03:53:30.474Z,23.48
2023-03-02T03:54:30.444Z,23.53
2023-03-02T03:55:30.437Z,23.60
2023-03-02T03:56:30.780Z,23.65
2023-03-02T03:57:30.402Z,23.52
2023-03-02T03:58:30.441Z,23.46
2023-03-02T03:59:30.385Z,23.46
2023-03-02T04:00:30.358Z,23.57
2023-03-02T04:01:30.362Z,23.64
2023-03-02T04:02:30.373Z,23.49
2023-03-02T04:03:30.321Z,23.44
2023-03-02T04:04:30.297Z,23.31
2023-03-02T04:05:31.677Z,23.49
2023-03-02T04:06:30.548Z,23.50
2023-03-02T04:07:30.261Z,23.52
2023-03-02T04:08:30.247Z,23.41
2023-03-02T04:09:30.255Z,23.27
2023-03-02T04:10:30.234Z,23.41
2023-03-02T04:11:30.224Z,23.42
2023-03-02T04:12:30.205Z,23.48
2023-03-02T04:13:30.206Z,23.33
2023-03-02T04:14:30.194Z,23.27
2023-03-02T04:15:30.203Z,23.34
2023-03-02T04:16:30.583Z,23.43
2023-03-02T04:17:30.122Z,23.48
2023-03-02T04:18:30.105Z,23.36
2023-03-02T04:19:30.113Z,23.25
2023-03-02T04:20:30.104Z,23.31
2023-03-02T04:21:30.069Z,23.36
2023-03-02T04:22:30.067Z,23.39
2023-03-02T04:23:30.037Z,23.38
2023-03-02T04:24:30.047Z,23.21
2023-03-02T04:25:30.019Z,23.27
2023-03-02T04:26:30.180Z,23.31
2023-03-02T04:27:29.989Z,23.36
2023-03-02T04:28:29.982Z,23.47
2023-03-02T04:29:29.959Z,23.38
2023-03-02T04:30:29.967Z,23.23
2023-03-02T04:31:29.994Z,23.25
2023-03-02T04:32:29.993Z,23.27
2023-03-02T04:33:29.893Z,23.43
2023-03-02T04:34:29.889Z,23.31
2023-03-02T04:35:29.915Z,23.11
2023-03-02T04:36:31.875Z,23.19
2023-03-02T04:37:29.849Z,23.32
2023-03-02T04:38:29.908Z,23.35
2023-03-02T04:39:29.831Z,23.45
2023-03-02T04:40:29.806Z,23.30
2023-03-02T04:41:29.803Z,23.36
2023-03-02T04:42:29.778Z,23.30
2023-03-02T04:43:29.773Z,23.41
2023-03-02T04:44:29.762Z,23.44
2023-03-02T04:45:29.739Z,23.38
2023-03-02T04:46:29.778Z,23.44
2023-03-02T04:47:29.718Z,23.49
2023-03-02T04:48:29.698Z,23.45
2023-03-02T04:49:29.668Z,23.44
2023-03-02T04:50:29.650Z,23.43
2023-03-02T04:51:29.631Z,23.45
2023-03-02T04:52:29.623Z,23.49
2023-03-02T04:53:29.609Z,23.57
2023-03-02T04:54:29.586Z,23.48
2023-03-02T04:55:29.564Z,23.50
2023-03-02T04:56:29.567Z,23.43
2023-03-02T04:57:29.532Z,23.56
2023-03-02T04:58:29.515Z,23.49
2023-03-02T04:59:29.498Z,23.54
2023-03-02T05:00:29.489Z,23.42
2023-03-02T05:01:29.475Z,23.40
2023-03-02T05:02:29.524Z,23.54
2023-03-02T05:03:29.439Z,23.53
2023-03-02T05:04:29.475Z,23.53
2023-03-02T05:05:29.420Z,23.56
2023-03-02T05:06:29.407Z,23.43
2023-03-02T05:07:29.390Z,23.53
2023-03-02T05:08:29.370Z,23.64
2023-03-02T05:09:29.360Z,23.63
2023-03-02T05:10:29.341Z,23.57
2023-03-02T05:11:29.314Z,23.59
2023-03-02T05:12:29.288Z,23.57
2023-03-02T05:13:29.281Z,23.45
2023-03-02T05:14:29.313Z,23.51
2023-03-02T05:15:29.254Z,23.51
2023-03-02T05:16:29.561Z,23.55
2023-03-02T05:17:29.198Z,23.61
2023-03-02T05:18:29.190Z,23.57
2023-03-02T05:19:29.166Z,23.60
2023-03-02T05:20:29.153Z,23.55
2023-03-02T05:21:29.133Z,23.56
2023-03-02T05:22:29.106Z,23.56
2023-03-02T05:23:29.088Z,23.52
2023-03-02T05:24:29.070Z,23.65
2023-03-02T05:25:29.063Z,23.53
2023-03-02T05:26:29.041Z,23.55
2023-03-02T05:27:29.006Z,23.55
2023-03-02T05:28:28.992Z,23.53
2023-03-02T05:29:28.985Z,23.55
2023-03-02T05:30:28.960Z,23.63
2023-03-02T05:31:28.987Z,23.60
2023-03-02T05:32:28.993Z,23.60
2023-03-02T05:33:28.900Z,23.61
2023-03-02T05:34:28.883Z,23.56
2023-03-02T05:35:28.924Z,23.57
2023-03-02T05:36:28.848Z,23.65
2023-03-02T05:37:28.834Z,23.61
2023-03-02T05:38:28.811Z,23.57
2023-03-02T05:39:28.786Z,23.55
2023-03-02T05:40:28.775Z,23.59
2023-03-02T05:41:28.757Z,23.61
2023-03-02T05:42:28.749Z,23.57
2023-03-02T05:43:28.719Z,23.64
2023-03-02T05:44:28.689Z,23.57
2023-03-02T05:45:28.677Z,23.57
2023-03-02T05:46:28.694Z,23.61
2023-03-02T05:47:28.645Z,23.56
2023-03-02T05:48:28.647Z,23.59
2023-03-02T05:49:28.622Z,23.59
2023-03-02T05:50:28.619Z,23.59
2023-03-02T05:51:28.601Z,23.67
2023-03-02T05:52:28.574Z,23.65
2023-03-02T05:53:28.562Z,23.64
2023-03-02T05:54:28.540Z,23.67
2023-03-02T05:55:28.520Z,23.58
2023-03-02T05:56:28.506Z,23.68
2023-03-02T05:57:28.492Z,23.66
2023-03-02T05:58:28.472Z,23.61
2023-03-02T05:59:28.456Z,23.72
2023-03-02T06:00:28.432Z,23.61
2023-03-02T06:01:28.426Z,23.59
2023-03-02T06:02:28.393Z,23.56
2023-03-02T06:03:28.416Z,23.71
2023-03-02T06:04:28.370Z,23.46
2023-03-02T06:05:28.326Z,23.52
2023-03-02T06:06:28.314Z,23.68
2023-03-02T06:07:28.298Z,23.59
2023-03-02T06:08:28.287Z,23.63
2023-03-02T06:09:28.269Z,23.65
2023-03-02T06:10:28.249Z,23.68
2023-03-02T06:11:28.234Z,23.65
2023-03-02T06:12:28.223Z,23.70
2023-03-02T06:13:28.216Z,23.64
2023-03-02T06:14:28.213Z,23.64
2023-03-02T06:15:28.189Z,23.63
2023-03-02T06:16:28.254Z,23.57
2023-03-02T06:17:28.157Z,23.62
2023-03-02T06:18:28.146Z,23.68
2023-03-02T06:19:28.126Z,23.68
2023-03-02T06:20:28.130Z,23.64
2023-03-02T06:21:28.097Z,23.73
2023-03-02T06:22:28.095Z,23.63
2023-03-02T06:23:28.089Z,23.67
2023-03-02T06:24:28.051Z,23.60
2023-03-02T06:25:28.033Z,23.59
2023-03-02T06:26:28.041Z,23.65
2023-03-02T06:27:28.048Z,23.61
2023-03-02T06:28:28.000Z,23.60
2023-03-02T06:29:27.998Z,23.64
2023-03-02T06:30:27.980Z,23.62
2023-03-02T06:31:28.045Z,23.67
2023-03-02T06:32:28.000Z,24.02
2023-03-02T06:33:27.936Z,24.51
2023-03-02T06:34:27.935Z,24.97
2023-03-02T06:35:28.006Z,25.36
2023-03-02T06:36:28.005Z,25.49
2023-03-02T06:37:27.908Z,25.69
2023-03-02T06:38:27.876Z,25.64
2023-03-02T06:39:27.857Z,25.81
2023-03-02T06:40:27.854Z,25.74
2023-03-02T06:41:27.832Z,25.90
2023-03-02T06:42:27.846Z,25.90
2023-03-02T06:43:27.805Z,26.19
2023-03-02T06:44:27.786Z,26.33
2023-03-02T06:45:27.764Z,26.42
2023-03-02T06:46:27.789Z,26.67
2023-03-02T06:47:27.751Z,26.72
2023-03-02T06:48:27.722Z,26.86
2023-03-02T06:49:27.693Z,27.11
2023-03-02T06:50:27.676Z,27.17
2023-03-02T06:51:27.659Z,27.19
2023-03-02T06:52:27.668Z,27.55
2023-03-02T06:53:27.613Z,27.35
2023-03-02T06:54:27.595Z,27.46
2023-03-02T06:55:27.565Z,27.27
2023-03-02T06:56:27.546Z,27.70
2023-03-02T06:57:27.532Z,27.66
2023-03-02T06:58:27.529Z,28.02
2023-03-02T06:59:27.500Z,27.99
2023-03-02T07:00:27.466Z,28.14
2023-03-02T07:01:27.510Z,28.20
2023-03-02T07:02:27.424Z,28.23
2023-03-02T07:03:27.469Z,28.18
2023-03-02T07:04:27.378Z,28.13
2023-03-02T07:05:27.351Z,28.27
2023-03-02T07:06:27.332Z,28.13
2023-03-02T07:07:27.315Z,28.30
2023-03-02T07:08:27.278Z,28.57
2023-03-02T07:09:27.246Z,28.49
2023-03-02T07:10:27.238Z,28.50
2023-03-02T07:11:27.200Z,28.67
2023-03-02T07:12:27.194Z,28.76
2023-03-02T07:13:27.158Z,28.60
2023-03-02T07:14:27.108Z,28.56
2023-03-02T07:15:27.091Z,28.68
2023-03-02T07:16:27.090Z,28.65
2023-03-02T07:17:27.046Z,28.82
2023-03-02T07:18:27.016Z,28.79
2023-03-02T07:19:27.000Z,28.74
2023-03-02T07:20:26.983Z,28.84
2023-03-02T07:21:26.952Z,28.92
2023-03-02T07:22:26.918Z,28.92
2023-03-02T07:23:26.887Z,28.94
2023-03-02T07:24:26.962Z,29.18
2023-03-02T07:25:26.839Z,29.10
2023-03-02T07:26:26.818Z,29.27
2023-03-02T07:27:26.784Z,29.34
2023-03-02T07:28:26.760Z,29.27
2023-03-02T07:29:26.733Z,29.17
2023-03-02T07:30:26.702Z,28.89
2023-03-02T07:31:26.700Z,29.04
2023-03-02T07:32:26.746Z,29.39
2023-03-02T07:33:26.632Z,29.12
2023-03-02T07:34:26.597Z,29.09
2023-03-02T07:35:26.622Z,29.22
2023-03-02T07:36:26.536Z,29.31
2023-03-02T07:37:26.504Z,29.45
2023-03-02T07:38:26.472Z,29.17
2023-03-02T07:39:26.439Z,29.20
2023-03-02T07:40:26.399Z,29.28
2023-03-02T07:41:26.381Z,29.80
2023-03-02T07:42:26.351Z,29.87
2023-03-02T07:43:26.305Z,30.01
2023-03-02T07:44:26.275Z,29.86
2023-03-02T07:45:26.241Z,29.35
2023-03-02T07:46:26.261Z,29.38
2023-03-02T07:47:26.175Z,29.13
2023-03-02T07:48:26.187Z,28.78
2023-03-02T07:49:26.126Z,29.14
2023-03-02T07:50:26.080Z,29.18
2023-03-02T07:51:26.021Z,28.91
2023-03-02T07:52:25.981Z,29.33
2023-03-02T07:53:25.949Z,28.91
2023-03-02T07:54:25.916Z,29.09
2023-03-02T07:55:25.872Z,29.47
2023-03-02T07:56:25.820Z,29.32
2023-03-02T07:57:25.778Z,29.21
2023-03-02T07:58:25.755Z,29.26
2023-03-02T07:59:25.713Z,29.26
2023-03-02T08:00:25.657Z,29.20
2023-03-02T08:01:25.649Z,29.28
2023-03-02T08:02:25.786Z,29.26
2023-03-02T08:03:25.552Z,29.50
2023-03-02T08:04:25.520Z,29.26
2023-03-02T08:05:25.474Z,29.52
2023-03-02T08:06:25.443Z,29.66
2023-03-02T08:07:25.394Z,29.61
2023-03-02T08:08:25.436Z,29.68
2023-03-02T08:09:25.345Z,29.56
2023-03-02T08:10:25.281Z,29.54
2023-03-02T08:11:25.245Z,30.18
2023-03-02T08:12:25.193Z,29.66
2023-03-02T08:13:25.150Z,29.92
2023-03-02T08:14:25.236Z,29.83
2023-03-02T08:15:25.063Z,29.71
2023-03-02T08:16:25.163Z,29.95
2023-03-02T08:17:24.968Z,29.75
2023-03-02T08:18:24.934Z,29.94
2023-03-02T08:19:24.884Z,29.78
2023-03-02T08:20:24.861Z,30.15
2023-03-02T08:21:24.827Z,30.09
2023-03-02T08:22:24.758Z,30.38
2023-03-02T08:23:24.732Z,30.15
2023-03-02T08:24:24.692Z,30.14
2023-03-02T08:25:24.637Z,30.06
2023-03-02T08:26:24.590Z,30.40
2023-03-02T08:27:24.542Z,30.34
2023-03-02T08:28:24.514Z,30.42
2023-03-02T08:29:24.498Z,30.51
2023-03-02T08:30:24.453Z,30.46
2023-03-02T08:31:24.477Z,30.08
2023-03-02T08:32:24.363Z,30.20
2023-03-02T08:33:24.298Z,30.35
2023-03-02T08:34:24.246Z,30.06
2023-03-02T08:35:24.230Z,30.56
2023-03-02T08:36:24.322Z,30.42
2023-03-02T08:37:24.270Z,30.62
2023-03-02T08:38:24.084Z,30.70
2023-03-02T08:39:24.052Z,30.49
2023-03-02T08:40:24.008Z,30.47
2023-03-02T08:41:23.954Z,30.42
2023-03-02T08:42:23.920Z,29.99
2023-03-02T08:43:23.874Z,29.26
2023-03-02T08:44:23.844Z,28.67
2023-03-02T08:45:23.836Z,28.29
2023-03-02T08:46:23.753Z,27.97
2023-03-02T08:47:23.682Z,27.66
2023-03-02T08:48:23.633Z,27.62
2023-03-02T08:49:23.631Z,27.43
2023-03-02T08:50:23.550Z,26.98
2023-03-02T08:51:23.516Z,26.77
2023-03-02T08:52:23.469Z,26.76
2023-03-02T08:53:23.417Z,26.48
2023-03-02T08:54:23.411Z,26.05
2023-03-02T08:55:23.412Z,26.15
2023-03-02T08:56:23.290Z,26.04
2023-03-02T08:57:23.245Z,25.91
2023-03-02T08:58:23.206Z,25.98
2023-03-02T08:59:23.156Z,26.09
2023-03-02T09:00:23.121Z,25.76
2023-03-02T09:01:23.225Z,25.88
2023-03-02T09:02:23.051Z,25.76
2023-03-02T09:03:22.978Z,25.69
2023-03-02T09:04:23.025Z,25.69
2023-03-02T09:05:22.895Z,25.62
2023-03-02T09:06:22.847Z,25.29
2023-03-02T09:07:22.808Z,25.60
2023-03-02T09:08:22.778Z,25.37
2023-03-02T09:09:22.724Z,25.41
2023-03-02T09:10:22.692Z,25.43
2023-03-02T09:11:22.643Z,25.37
2023-03-02T09:12:22.610Z,25.26
2023-03-02T09:13:22.572Z,25.36
2023-03-02T09:14:22.544Z,25.20
2023-03-02T09:15:22.511Z,25.27
2023-03-02T09:16:22.534Z,25.28
2023-03-02T09:17:22.418Z,25.16
2023-03-02T11:26:08.688Z,24.59
2023-03-02T11:32:08.777Z,24.32
2023-03-02T11:37:08.506Z,24.63
2023-03-02T11:38:08.493Z,25.37
2023-03-02T11:39:08.474Z,25.22
2023-03-02T11:40:08.452Z,25.24
2023-03-02T11:41:08.460Z,25.56
2023-03-02T11:42:08.469Z,25.80
2023-03-02T11:43:08.421Z,25.43
2023-03-02T11:44:08.408Z,25.31
2023-03-02T11:45:08.384Z,25.47
2023-03-02T11:47:08.405Z,26.02
2023-03-02T11:48:08.361Z,25.94
2023-03-02T11:49:08.322Z,26.12
2023-03-02T11:50:08.309Z,25.90
2023-03-02T11:51:08.381Z,25.83
2023-03-02T11:52:08.259Z,25.90
2023-03-02T11:53:08.277Z,26.17
2023-03-02T11:54:08.270Z,26.23
2023-03-02T11:56:08.201Z,26.32
2023-03-02T11:57:08.198Z,26.43
2023-03-02T11:58:08.173Z,26.24
2023-03-02T11:59:08.140Z,26.32
2023-03-02T12:00:08.142Z,26.79
2023-03-02T12:01:08.116Z,26.79
2023-03-02T12:02:08.215Z,26.38
2023-03-02T12:03:08.077Z,26.66
2023-03-02T12:04:08.064Z,26.69
2023-03-02T12:05:08.078Z,26.81
2023-03-02T12:06:08.020Z,26.97
2023-03-02T12:07:08.009Z,26.87
2023-03-02T12:08:08.007Z,27.21
2023-03-02T12:09:08.081Z,26.70
2023-03-02T12:13:07.918Z,26.93
2023-03-02T12:15:07.901Z,27.06
2023-03-02T12:17:07.850Z,27.00
2023-03-02T12:18:07.972Z,26.63
2023-03-02T12:21:07.819Z,26.81
2023-03-02T12:23:07.772Z,27.27
2023-03-02T12:24:07.772Z,27.13
2023-03-02T12:25:07.847Z,27.51
2023-03-02T12:26:07.737Z,27.59
2023-03-02T12:27:07.734Z,28.05
2023-03-02T12:28:07.704Z,27.51
2023-03-02T12:29:07.717Z,27.10
2023-03-02T12:30:07.687Z,27.08
2023-03-02T12:31:07.674Z,27.10
2023-03-02T12:32:07.743Z,27.22
2023-03-02T12:33:07.640Z,27.16
2023-03-02T12:34:07.638Z,26.52
2023-03-02T12:35:07.594Z,26.27
2023-03-02T12:36:07.583Z,26.02
2023-03-02T12:37:07.586Z,25.98
2023-03-02T12:38:07.626Z,25.92
2023-03-02T12:39:07.528Z,25.86
2023-03-02T12:40:07.489Z,25.86
2023-03-02T12:41:07.518Z,26.10
2023-03-02T12:42:07.469Z,26.05
2023-03-02T12:43:07.527Z,25.63
2023-03-02T12:44:07.464Z,25.82
2023-03-02T12:45:07.406Z,25.69
2023-03-02T12:46:07.453Z,25.47
2023-03-02T12:47:07.490Z,25.64
2023-03-02T12:48:07.758Z,25.56
2023-03-02T12:49:08.763Z,25.28
2023-03-02T12:50:07.335Z,25.39
2023-03-02T12:51:07.321Z,25.38
2023-03-02T12:52:07.362Z,25.63
2023-03-02T12:53:07.286Z,25.57
2023-03-02T12:54:07.292Z,25.49
2023-03-02T12:55:07.243Z,25.23
2023-03-02T12:56:07.252Z,25.29
2023-03-02T12:57:07.209Z,25.22
2023-03-02T12:58:08.891Z,25.24
2023-03-02T12:59:07.216Z,25.12
2023-03-02T13:00:07.196Z,25.11
2023-03-02T13:01:07.182Z,25.29
2023-03-02T13:02:07.120Z,25.20
2023-03-02T13:03:07.230Z,25.36
2023-03-02T13:04:07.224Z,25.12
2023-03-02T13:05:07.085Z,25.05
2023-03-02T13:06:07.078Z,25.32
2023-03-02T13:07:07.053Z,25.20
2023-03-02T13:08:07.035Z,25.36
2023-03-02T13:09:07.066Z,25.18
2023-03-02T13:10:07.032Z,25.11
2023-03-02T13:11:06.998Z,25.16
2023-03-02T13:12:06.961Z,25.00
2023-03-02T13:13:07.026Z,25.03
2023-03-02T13:14:06.937Z,25.06
2023-03-02T13:15:06.926Z,24.87
2023-03-02T13:16:06.913Z,24.94
2023-03-02T13:17:06.970Z,24.71
2023-03-02T13:18:06.937Z,24.57
2023-03-02T13:19:06.874Z,24.79
2023-03-02T13:20:06.864Z,24.78
2023-03-02T13:21:06.837Z,24.78
2023-03-02T13:22:06.874Z,24.63
2023-03-02T13:23:06.798Z,24.48
2023-03-02T13:24:06.786Z,24.64
2023-03-02T13:25:06.785Z,24.55
2023-03-02T13:26:06.765Z,24.63
2023-03-02T13:27:06.856Z,24.59
2023-03-02T13:50:06.553Z,24.31
2023-03-02T17:04:06.126Z,24.59
2023-03-02T17:09:05.156Z,24.54
2023-03-02T17:36:05.125Z,24.59
2023-03-02T18:13:05.145Z,24.49
2023-03-02T18:14:05.140Z,24.54
2023-03-02T18:15:05.125Z,24.39
2023-03-02T18:16:05.182Z,24.45
2023-03-02T18:18:05.126Z,24.44
2023-03-02T18:19:05.127Z,24.37
2023-03-02T18:20:05.140Z,24.53
2023-03-02T18:21:05.128Z,24.57
2023-03-02T18:22:05.131Z,24.58
2023-03-02T18:23:05.126Z,24.33
2023-03-02T18:24:05.133Z,24.50
2023-03-02T18:25:05.132Z,24.52
2023-03-02T18:26:05.126Z,24.59
2023-03-02T18:27:05.117Z,24.54
2023-03-02T18:28:05.124Z,24.50
2023-03-02T18:30:05.121Z,24.54
2023-03-02T18:31:05.130Z,24.58
2023-03-02T18:32:05.138Z,24.38
2023-03-02T18:33:05.119Z,24.42
2023-03-02T18:34:05.130Z,24.44
2023-03-02T18:35:05.127Z,24.58
2023-03-02T18:37:05.112Z,24.39
2023-03-02T18:39:05.117Z,24.52
2023-03-02T18:40:05.139Z,24.43
2023-03-02T18:41:05.117Z,24.60
2023-03-02T18:42:05.117Z,24.40
2023-03-02T18:43:05.116Z,24.48
2023-03-02T18:44:05.121Z,24.48
2023-03-02T18:46:05.145Z,24.47
2023-03-02T18:47:05.114Z,24.42
2023-03-02T18:48:05.119Z,24.58
2023-03-02T18:49:05.115Z,24.35
2023-03-02T18:50:05.143Z,24.32
2023-03-02T18:51:05.123Z,24.55
2023-03-02T18:52:05.117Z,24.49
2023-03-02T18:55:05.107Z,24.44
2023-03-02T18:57:05.112Z,24.46
2023-03-02T18:58:05.113Z,24.47
2023-03-02T18:59:05.104Z,24.56
2023-03-02T19:00:05.133Z,24.51
2023-03-02T19:01:05.140Z,24.44
2023-03-02T19:02:05.172Z,24.50
2023-03-02T19:03:05.105Z,24.54
2023-03-02T19:04:05.107Z,24.48
2023-03-02T19:05:05.146Z,24.39
2023-03-02T19:06:05.097Z,24.34
2023-03-02T19:07:05.099Z,24.36
2023-03-02T19:08:05.106Z,24.38
2023-03-02T19:09:05.107Z,24.48
2023-03-02T19:10:05.115Z,24.44
2023-03-02T19:11:05.117Z,24.51
2023-03-02T19:13:05.126Z,24.36
2023-03-02T19:14:05.126Z,24.35
2023-03-02T19:16:05.164Z,24.40
2023-03-02T19:17:05.118Z,24.47
2023-03-02T19:18:05.127Z,24.48
2023-03-02T19:21:05.156Z,24.46
2023-03-02T19:22:05.155Z,24.48
2023-03-02T19:23:05.160Z,24.41
2023-03-02T19:24:05.193Z,24.33
2023-03-02T19:25:05.173Z,24.46
2023-03-02T19:26:05.184Z,24.45
2023-03-02T19:28:05.191Z,24.36
2023-03-02T19:29:05.187Z,24.36
2023-03-02T19:30:05.194Z,24.36
2023-03-02T19:31:05.209Z,24.48
2023-03-02T19:32:05.249Z,24.43
2023-03-02T19:33:05.208Z,24.41
2023-03-02T19:34:05.201Z,24.48
2023-03-02T19:35:05.215Z,24.52
2023-03-02T19:36:05.225Z,24.40
2023-03-02T19:38:05.226Z,24.41
2023-03-02T19:39:05.219Z,24.46
2023-03-02T19:40:05.218Z,24.44
2023-03-02T19:42:05.220Z,24.39
2023-03-02T19:43:05.217Z,24.41
2023-03-02T19:44:05.208Z,24.41
2023-03-02T19:45:05.227Z,24.49
2023-03-02T19:47:05.211Z,24.32
2023-03-02T19:48:05.213Z,24.34
2023-03-02T19:49:05.217Z,24.39
2023-03-02T19:50:05.229Z,24.36
2023-03-02T19:51:05.230Z,24.37
2023-03-02T19:52:05.234Z,24.39
2023-03-02T19:53:05.236Z,24.40
2023-03-02T19:54:05.247Z,24.49
2023-03-02T19:55:05.278Z,24.34
2023-03-02T19:57:05.282Z,24.41
2023-03-02T19:58:05.249Z,24.45
2023-03-02T20:00:05.257Z,24.38
2023-03-02T20:01:05.324Z,24.38
2023-03-02T20:02:05.269Z,24.40
2023-03-02T20:03:05.290Z,24.46
2023-03-02T20:04:05.256Z,24.38
2023-03-02T20:06:05.256Z,24.34
2023-03-02T20:07:05.262Z,24.32
2023-03-02T20:08:05.267Z,24.35
2023-03-02T20:09:05.283Z,24.40
2023-03-02T20:10:05.270Z,24.42
2023-03-02T20:11:05.278Z,24.39
2023-03-02T20:12:05.286Z,24.31
2023-03-02T20:13:05.272Z,24.38
2023-03-02T20:14:05.271Z,24.33
2023-03-02T20:15:05.272Z,24.42
2023-03-02T20:16:05.282Z,24.41
2023-03-02T20:17:05.269Z,24.46
2023-03-02T20:18:05.276Z,24.42
2023-03-02T20:19:05.254Z,24.38